createdAt,value
2023-04-16T00:02:50.730Z,4.07
2023-04-16T00:05:55.955Z,4.00
2023-04-16T00:09:00.494Z,3.90
2023-04-16T00:12:04.106Z,5.03
2023-04-16T00:15:07.952Z,3.93
2023-04-16T00:18:11.066Z,3.50
2023-04-16T00:21:14.139Z,4.40
2023-04-16T00:24:18.623Z,4.00
2023-04-16T00:27:21.782Z,3.90
2023-04-16T00:30:24.859Z,4.50
2023-04-16T00:33:27.919Z,4.00
2023-04-16T00:36:31.096Z,4.50
2023-04-16T00:39:35.527Z,3.80
2023-04-16T00:42:38.551Z,3.63
2023-04-16T00:45:41.667Z,3.40
2023-04-16T00:48:45.992Z,3.97
2023-04-16T00:51:49.648Z,3.50
2023-04-16T00:54:55.023Z,3.80
2023-04-16T00:57:58.180Z,3.20
2023-04-16T01:01:01.325Z,4.00
2023-04-16T01:04:04.913Z,3.63
2023-04-16T01:07:08.050Z,3.50
2023-04-16T01:10:12.822Z,3.20
2023-04-16T01:13:16.011Z,3.63
2023-04-16T01:16:19.239Z,3.53
2023-04-16T01:19:22.361Z,3.40
2023-04-16T01:22:26.883Z,3.00
2023-04-16T01:25:29.926Z,3.37
2023-04-16T01:28:33.071Z,3.33
2023-04-16T01:31:36.139Z,3.43
2023-04-16T01:34:39.219Z,2.87
2023-04-16T01:37:43.710Z,2.67
2023-04-16T01:40:46.788Z,4.00
2023-04-16T01:43:49.910Z,3.40
2023-04-16T01:46:53.143Z,3.33
2023-04-16T01:49:56.397Z,2.93
2023-04-16T01:53:02.067Z,2.97
2023-04-16T01:56:05.839Z,3.27
2023-04-16T01:59:09.056Z,3.50
2023-04-16T02:02:14.617Z,2.70
2023-04-16T02:05:17.933Z,3.20
2023-04-16T02:08:22.455Z,2.90
2023-04-16T02:11:25.646Z,2.93
2023-04-16T02:14:28.804Z,2.80
2023-04-16T02:17:31.993Z,3.00
2023-04-16T02:20:36.256Z,3.50
2023-04-16T02:23:41.484Z,2.70
2023-04-16T02:26:45.125Z,2.83
2023-04-16T02:29:48.244Z,3.20
2023-04-16T02:32:51.329Z,3.30
2023-04-16T02:35:54.401Z,2.90
2023-04-16T02:38:59.210Z,2.40
2023-04-16T02:42:02.877Z,2.90
2023-04-16T02:45:07.128Z,3.07
2023-04-16T02:48:10.275Z,2.80
2023-04-16T02:51:13.421Z,2.27
2023-04-16T02:54:17.948Z,2.50
2023-04-16T02:57:21.044Z,3.07
2023-04-16T03:00:24.281Z,3.20
2023-04-16T03:03:27.461Z,2.90
2023-04-16T03:06:31.455Z,2.83
2023-04-16T03:09:35.961Z,3.10
2023-04-16T03:12:39.272Z,2.83
2023-04-16T03:15:42.372Z,3.10
2023-04-16T03:18:45.461Z,2.83
2023-04-16T03:21:48.637Z,2.80
2023-04-16T03:24:53.103Z,3.57
2023-04-16T03:27:56.302Z,2.60
2023-04-16T03:30:59.500Z,2.27
2023-04-16T03:34:02.717Z,2.70
2023-04-16T03:37:06.282Z,2.80
2023-04-16T03:40:11.450Z,2.57
2023-04-16T03:43:14.557Z,2.43
2023-04-16T03:46:17.769Z,2.83
2023-04-16T03:49:20.845Z,3.10
2023-04-16T03:52:23.889Z,3.10
2023-04-16T03:55:29.376Z,3.77
2023-04-16T03:58:32.420Z,3.33
2023-04-16T04:01:35.551Z,3.87
2023-04-16T04:04:38.746Z,3.73
2023-04-16T04:07:41.918Z,3.80
2023-04-16T04:10:49.059Z,3.97
2023-04-16T04:13:52.116Z,4.23
2023-04-16T04:16:55.230Z,3.53
2023-04-16T04:20:01.447Z,4.00
2023-04-16T04:23:05.159Z,3.90
2023-04-16T04:26:09.997Z,4.20
2023-04-16T04:29:13.154Z,4.50
2023-04-16T04:32:16.272Z,4.07
2023-04-16T04:35:19.504Z,4.80
2023-04-16T04:38:25.331Z,4.57
2023-04-16T04:41:29.886Z,5.30
2023-04-16T04:44:32.982Z,4.47
2023-04-16T04:47:36.259Z,4.80
2023-04-16T04:50:40.194Z,4.83
2023-04-16T04:53:43.232Z,5.27
2023-04-16T04:56:47.697Z,4.63
2023-04-16T04:59:50.877Z,4.83
2023-04-16T05:02:54.103Z,4.37
2023-04-16T05:05:57.273Z,4.93
2023-04-16T05:09:00.597Z,4.97
2023-04-16T05:12:05.460Z,4.40
2023-04-16T05:15:09.725Z,4.00
2023-04-16T05:18:12.806Z,4.80
2023-04-16T05:21:15.902Z,3.87
2023-04-16T05:24:18.998Z,3.83
2023-04-16T05:27:23.448Z,4.63
2023-04-16T05:30:26.547Z,4.70
2023-04-16T05:33:29.717Z,4.47
2023-04-16T05:36:32.779Z,3.73
2023-04-16T05:39:35.935Z,4.80
2023-04-16T05:42:40.430Z,4.33
2023-04-16T05:45:48.298Z,4.30
2023-04-16T05:48:51.432Z,5.00
2023-04-16T05:51:54.560Z,4.70
2023-04-16T05:54:58.128Z,4.27
2023-04-16T05:58:04.406Z,3.33
2023-04-16T06:01:07.543Z,3.57
2023-04-16T06:04:10.887Z,3.30
2023-04-16T06:07:14.124Z,3.80
2023-04-16T06:10:17.282Z,4.00
2023-04-16T06:13:21.826Z,3.90
2023-04-16T06:16:24.973Z,4.30
2023-04-16T06:19:28.078Z,4.10
2023-04-16T06:22:31.303Z,4.10
2023-04-16T06:25:34.378Z,4.37
2023-04-16T06:28:38.817Z,4.03
2023-04-16T06:31:42.084Z,4.20
2023-04-16T06:34:45.250Z,3.93
2023-04-16T06:37:48.440Z,4.40
2023-04-16T06:40:51.520Z,3.70
2023-04-16T06:43:55.999Z,3.50
2023-04-16T06:46:59.164Z,4.07
2023-04-16T06:50:02.474Z,4.70
2023-04-16T06:53:05.548Z,3.83
2023-04-16T06:56:09.382Z,4.90
2023-04-16T06:59:13.793Z,4.97
2023-04-16T07:02:17.048Z,5.50
2023-04-16T07:05:20.466Z,4.90
2023-04-16T07:08:23.574Z,4.40
2023-04-16T07:11:27.455Z,3.63
2023-04-16T07:14:31.917Z,3.67
2023-04-16T07:17:35.051Z,3.47
2023-04-16T07:20:38.219Z,3.83
2023-04-16T07:23:41.386Z,3.67
2023-04-16T07:26:44.442Z,3.20
2023-04-16T07:29:50.362Z,3.97
2023-04-16T07:32:55.846Z,3.70
2023-04-16T07:35:59.083Z,3.10
2023-04-16T07:39:02.175Z,2.93
2023-04-16T07:42:05.457Z,3.50
2023-04-16T07:45:11.181Z,3.53
2023-04-16T07:48:14.449Z,3.10
2023-04-16T07:51:17.586Z,3.60
2023-04-16T07:54:21.100Z,3.27
2023-04-16T07:57:26.931Z,3.20
2023-04-16T08:00:31.428Z,3.07
2023-04-16T08:03:34.743Z,3.53
2023-04-16T08:06:38.057Z,3.33
2023-04-16T08:09:49.623Z,3.70
2023-04-16T08:12:52.728Z,3.17
2023-04-16T08:15:57.258Z,3.47
2023-04-16T08:19:01.168Z,3.63
2023-04-16T08:22:04.384Z,3.67
2023-04-16T08:25:08.531Z,3.83
2023-04-16T08:28:11.597Z,3.27
2023-04-16T08:31:16.227Z,3.23
2023-04-16T08:34:19.363Z,3.30
2023-04-16T08:37:22.462Z,2.60
2023-04-16T08:40:27.256Z,3.13
2023-04-16T08:43:35.141Z,3.27
2023-04-16T08:46:41.775Z,3.50
2023-04-16T08:49:45.946Z,2.67
2023-04-16T08:52:52.828Z,2.93
2023-04-16T08:56:00.018Z,2.80
2023-04-16T08:59:05.589Z,2.60
2023-04-16T09:02:13.238Z,3.33
2023-04-16T09:05:18.236Z,2.63
2023-04-16T09:08:21.705Z,2.67
2023-04-16T09:11:25.285Z,3.40
2023-04-16T09:14:28.518Z,3.20
2023-04-16T09:17:33.338Z,2.97
2023-04-16T09:20:36.414Z,2.40
2023-04-16T09:23:40.180Z,2.17
2023-04-16T09:26:44.481Z,2.50
2023-04-16T09:29:47.581Z,2.60
2023-04-16T09:32:52.924Z,2.70
2023-04-16T09:35:56.080Z,3.00
2023-04-16T09:38:59.861Z,4.07
2023-04-16T09:42:06.349Z,3.70
2023-04-16T09:45:09.873Z,3.50
2023-04-16T09:48:14.431Z,2.97
2023-04-16T09:51:17.565Z,3.43
2023-04-16T09:54:21.457Z,2.93
2023-04-16T09:57:26.230Z,3.10
2023-04-16T10:00:31.529Z,4.10
2023-04-16T10:03:38.262Z,2.90
2023-04-16T10:06:41.672Z,3.97
2023-04-16T10:09:45.322Z,2.77
2023-04-16T10:12:48.418Z,2.83
2023-04-16T10:15:51.731Z,2.47
2023-04-16T10:18:57.685Z,2.10
2023-04-16T10:22:00.771Z,2.00
2023-04-16T10:25:04.799Z,2.10
2023-04-16T10:28:09.820Z,2.60
2023-04-16T10:31:14.502Z,2.03
2023-04-16T10:34:19.686Z,1.97
2023-04-16T10:37:31.228Z,2.63
2023-04-16T10:40:34.428Z,2.70
2023-04-16T10:43:42.007Z,2.33
2023-04-16T10:46:49.428Z,1.87
2023-04-16T10:49:55.106Z,1.57
2023-04-16T10:53:19.252Z,2.33
2023-04-16T10:56:26.236Z,1.90
2023-04-16T10:59:33.362Z,2.10
2023-04-16T11:02:36.615Z,2.27
2023-04-16T11:05:48.152Z,1.50
2023-04-16T11:08:55.025Z,1.50
2023-04-16T11:11:59.089Z,2.00
2023-04-16T11:15:03.531Z,1.50
2023-04-16T11:18:07.132Z,1.37
2023-04-16T11:21:13.568Z,1.50
2023-04-16T11:24:16.658Z,1.40
2023-04-16T11:27:19.754Z,1.00
2023-04-16T11:30:30.761Z,1.00
2023-04-16T11:33:33.858Z,1.00
2023-04-16T11:36:46.133Z,1.27
2023-04-16T11:39:50.962Z,1.57
2023-04-16T11:42:54.137Z,1.30
2023-04-16T11:46:05.556Z,1.20
2023-04-16T11:49:17.419Z,0.83
2023-04-16T11:52:29.207Z,1.20
2023-04-16T11:55:32.460Z,1.10
2023-04-16T11:58:35.680Z,1.10
2023-04-16T12:01:40.255Z,1.17
2023-04-16T12:04:43.637Z,0.70
2023-04-16T12:07:48.234Z,1.10
2023-04-16T12:10:56.083Z,1.10
2023-04-16T12:14:09.508Z,0.80
2023-04-16T12:17:19.892Z,1.00
2023-04-16T12:20:23.018Z,1.20
2023-04-16T12:23:29.434Z,2.43
2023-04-16T12:26:39.398Z,1.17
2023-04-16T12:29:42.472Z,1.30
2023-04-16T12:32:47.546Z,1.00
2023-04-16T12:35:50.988Z,1.00
2023-04-16T12:38:55.408Z,0.97
2023-04-16T12:41:58.695Z,1.10
2023-04-16T12:45:01.716Z,1.30
2023-04-16T12:48:05.085Z,1.00
2023-04-16T12:51:08.230Z,0.80
2023-04-16T12:54:12.673Z,0.63
2023-04-16T12:57:16.971Z,0.60
2023-04-16T13:00:20.920Z,0.80
2023-04-16T13:03:24.401Z,0.80
2023-04-16T13:06:31.453Z,0.80
2023-04-16T13:09:37.808Z,0.83
2023-04-16T13:12:42.974Z,1.20
2023-04-16T13:15:46.045Z,1.10
2023-04-16T13:18:49.234Z,1.10
2023-04-16T13:21:52.868Z,0.93
2023-04-16T13:24:57.555Z,1.00
2023-04-16T13:28:00.751Z,1.07
2023-04-16T13:31:05.835Z,0.93
2023-04-16T13:34:09.189Z,1.57
2023-04-16T13:37:12.227Z,1.10
2023-04-16T13:40:18.179Z,1.13
2023-04-16T13:43:22.410Z,1.07
2023-04-16T13:46:25.907Z,1.00
2023-04-16T13:49:29.161Z,1.30
2023-04-16T13:52:32.166Z,3.37
2023-04-16T13:55:37.229Z,1.30
2023-04-16T13:58:40.900Z,4.23
2023-04-16T14:01:44.323Z,2.10
2023-04-16T14:04:47.749Z,1.10
2023-04-16T14:07:51.146Z,1.07
2023-04-16T14:10:56.473Z,1.17
2023-04-16T14:14:00.265Z,1.13
2023-04-16T14:17:03.988Z,1.50
2023-04-16T14:20:08.150Z,17.57
2023-04-16T14:23:12.819Z,1.60
2023-04-16T14:26:17.445Z,1.40
2023-04-16T14:29:20.905Z,1.20
2023-04-16T14:32:24.693Z,1.20
2023-04-16T14:35:28.376Z,1.10
2023-04-16T14:38:32.445Z,0.80
2023-04-16T14:41:37.164Z,1.00
2023-04-16T14:44:40.425Z,1.00
2023-04-16T14:47:47.747Z,1.20
2023-04-16T14:50:50.929Z,1.70
2023-04-16T14:53:54.401Z,1.20
2023-04-16T14:56:59.164Z,0.87
2023-04-16T15:00:02.246Z,1.80
2023-04-16T15:03:06.723Z,1.40
2023-04-16T15:06:11.418Z,1.10
2023-04-16T15:09:14.773Z,1.53
2023-04-16T15:12:19.668Z,2.47
2023-04-16T15:15:23.980Z,6.27
2023-04-16T15:18:27.273Z,5.83
2023-04-16T15:21:32.016Z,13.17
2023-04-16T15:24:36.067Z,4.70
2023-04-16T15:27:41.188Z,1.70
2023-04-16T15:30:47.190Z,2.37
2023-04-16T15:33:50.631Z,2.80
2023-04-16T15:36:55.142Z,1.87
2023-04-16T15:39:58.706Z,2.27
2023-04-16T15:43:03.304Z,2.10
2023-04-16T15:46:09.102Z,1.50
2023-04-16T15:49:13.066Z,2.27
2023-04-16T15:52:17.313Z,2.10
2023-04-16T15:55:21.334Z,1.83
2023-04-16T15:58:26.794Z,1.93
2023-04-16T16:01:30.315Z,1.70
2023-04-16T16:04:35.141Z,1.97
2023-04-16T16:07:38.567Z,1.80
2023-04-16T16:10:42.953Z,1.87
2023-04-16T16:13:48.075Z,3.60
2023-04-16T16:16:52.002Z,3.90
2023-04-16T16:19:58.005Z,1.77
2023-04-16T16:23:01.693Z,1.70
2023-04-16T16:26:08.918Z,1.60
2023-04-16T16:29:15.037Z,1.47
2023-04-16T16:32:18.742Z,2.63
2023-04-16T16:35:21.965Z,2.53
2023-04-16T16:38:25.920Z,3.00
2023-04-16T16:41:32.157Z,2.47
2023-04-16T16:44:37.161Z,1.70
2023-04-16T16:47:40.870Z,1.83
2023-04-16T16:50:45.585Z,2.20
2023-04-16T16:53:49.088Z,2.00
2023-04-16T16:56:53.767Z,2.30
2023-04-16T17:00:00.160Z,1.90
2023-04-16T17:03:04.958Z,1.90
2023-04-16T17:06:09.257Z,1.60
2023-04-16T17:09:13.512Z,1.90
2023-04-16T17:12:17.290Z,2.47
2023-04-16T17:15:22.532Z,2.40
2023-04-16T17:18:27.339Z,2.60
2023-04-16T17:21:34.466Z,1.80
2023-04-16T17:24:38.511Z,1.77
2023-04-16T17:27:41.996Z,2.00
2023-04-16T17:30:48.084Z,1.90
2023-04-16T17:33:52.318Z,1.90
2023-04-16T17:36:56.046Z,1.90
2023-04-16T17:39:59.607Z,4.33
2023-04-16T17:43:04.164Z,2.30
2023-04-16T17:46:12.469Z,2.33
2023-04-16T17:49:16.986Z,2.17
2023-04-16T17:59:09.694Z,2.10
2023-04-16T18:02:14.409Z,2.70
2023-04-16T18:05:19.536Z,2.70
2023-04-16T18:08:27.008Z,3.50
2023-04-16T18:11:35.401Z,2.60
2023-04-16T18:14:45.182Z,3.30
2023-04-16T18:17:49.361Z,2.80
2023-04-16T18:20:54.322Z,2.80
2023-04-16T18:23:58.071Z,3.73
2023-04-16T18:27:02.017Z,4.30
2023-04-16T18:36:20.654Z,5.80
2023-04-16T18:39:27.234Z,5.63
2023-04-16T18:42:31.945Z,5.23
2023-04-16T18:45:40.604Z,5.30
2023-04-16T18:48:45.721Z,4.77
2023-04-16T18:51:50.217Z,5.03
2023-04-16T18:54:53.945Z,6.00
2023-04-16T18:57:57.674Z,6.50
2023-04-16T19:01:03.032Z,7.07
2023-04-16T19:04:06.659Z,5.93
2023-04-16T19:07:10.654Z,5.10
2023-04-16T19:10:14.312Z,5.77
2023-04-16T19:13:18.327Z,5.30
2023-04-16T19:16:24.100Z,5.37
2023-04-16T19:19:28.001Z,5.67
2023-04-16T19:22:31.955Z,5.80
2023-04-16T19:25:36.966Z,5.90
2023-04-16T19:28:43.106Z,5.70
2023-04-16T19:31:48.501Z,4.93
2023-04-16T19:34:52.102Z,5.23
2023-04-16T19:37:56.966Z,5.17
2023-04-16T19:41:02.588Z,5.20
2023-04-16T19:44:08.042Z,4.87
2023-04-16T19:47:14.065Z,6.90
2023-04-16T19:50:18.477Z,7.30
2023-04-16T19:53:24.701Z,8.93
2023-04-16T19:56:27.836Z,16.80
2023-04-16T19:59:32.771Z,9.33
2023-04-16T20:02:40.111Z,11.57
2023-04-16T20:05:44.282Z,15.50
2023-04-16T20:08:47.894Z,16.10
2023-04-16T20:11:51.623Z,18.07
2023-04-16T20:14:55.753Z,14.37
2023-04-16T20:18:00.431Z,16.60
2023-04-16T20:21:06.039Z,16.87
2023-04-16T20:24:10.722Z,18.97
2023-04-16T20:27:15.556Z,22.10
2023-04-16T20:30:19.235Z,11.63
2023-04-16T20:33:24.377Z,14.60
2023-04-16T20:36:27.961Z,10.97
2023-04-16T20:39:34.155Z,11.20
2023-04-16T20:42:37.686Z,11.63
2023-04-16T20:45:41.119Z,15.40
2023-04-16T20:48:46.243Z,20.67
2023-04-16T20:51:49.355Z,11.80
2023-04-16T20:54:53.025Z,11.10
2023-04-16T20:57:56.281Z,11.43
2023-04-16T21:00:59.562Z,8.67
2023-04-16T21:04:04.334Z,4.60
2023-04-16T21:07:07.747Z,4.17
2023-04-16T21:10:11.684Z,3.63
2023-04-16T21:13:14.956Z,3.30
2023-04-16T21:16:18.561Z,3.90
2023-04-16T21:19:23.565Z,3.50
2023-04-16T21:22:26.608Z,3.23
2023-04-16T21:25:29.965Z,2.87
2023-04-16T21:28:33.052Z,2.87
2023-04-16T21:31:36.170Z,2.77
2023-04-16T21:34:40.742Z,2.83
2023-04-16T21:37:43.895Z,2.90
2023-04-16T21:40:50.520Z,3.00
2023-04-16T21:43:53.593Z,3.17
2023-04-16T21:46:56.720Z,3.00
2023-04-16T21:50:01.369Z,3.10
2023-04-16T21:53:06.300Z,3.80
2023-04-16T21:56:09.417Z,3.23
2023-04-16T21:59:12.712Z,3.57
2023-04-16T22:02:16.037Z,3.93
2023-04-16T22:05:21.134Z,4.80
2023-04-16T22:08:25.160Z,3.40
2023-04-16T22:11:28.502Z,4.47
2023-04-16T22:14:32.012Z,4.47
2023-04-16T22:17:35.362Z,4.73
2023-04-16T22:20:40.377Z,5.10
2023-04-16T22:23:43.444Z,3.57
2023-04-16T22:26:46.505Z,3.53
2023-04-16T22:29:49.910Z,2.90
2023-04-16T22:32:53.382Z,2.57
2023-04-16T22:35:58.048Z,3.23
2023-04-16T22:39:01.223Z,2.83
2023-04-16T22:42:04.877Z,2.50
2023-04-16T22:45:08.899Z,2.73
2023-04-16T22:48:12.051Z,2.77
2023-04-16T22:51:16.524Z,2.47
2023-04-16T22:54:19.543Z,3.00
2023-04-16T22:57:24.970Z,2.90
2023-04-16T23:00:28.468Z,3.20
2023-04-16T23:03:31.980Z,4.00
2023-04-16T23:06:36.791Z,2.10
2023-04-16T23:09:39.935Z,2.73
2023-04-16T23:12:43.165Z,2.33
2023-04-16T23:15:47.411Z,2.20
2023-04-16T23:18:50.749Z,2.17
2023-04-16T23:21:55.191Z,2.20
2023-04-16T23:24:58.297Z,2.30
2023-04-16T23:28:01.385Z,2.23
2023-04-16T23:31:07.113Z,1.60
2023-04-16T23:34:10.599Z,1.80
2023-04-16T23:37:15.017Z,1.60
2023-04-16T23:40:18.377Z,1.50
2023-04-16T23:43:21.540Z,1.60
2023-04-16T23:46:24.664Z,1.53
2023-04-16T23:49:27.803Z,1.67
2023-04-16T23:52:32.470Z,1.40
2023-04-16T23:55:35.671Z,1.43
2023-04-16T23:58:38.833Z,1.50
